sensor_id;sensor_type;location;lat;lon;timestamp;pressure;altitude;pressure_sealevel;temperature;humidity
62980;BME280;49075;53.988;27.678;2023-07-08T00:02:08;991;;;14.6;52.7
62980;BME280;49075;53.988;27.678;2023-07-08T00:07:09;991;;;14.5;53.1
62980;BME280;49075;53.988;27.678;2023-07-08T00:12:15;991;;;14.4;53.1
62980;BME280;49075;53.988;27.678;2023-07-08T00:17:57;990.9;;;14.4;53.5
62980;BME280;49075;53.988;27.678;2023-07-08T00:22:21;991;;;14.4;53.3
62980;BME280;49075;53.988;27.678;2023-07-08T00:27:15;991;;;14.4;53.8
62980;BME280;49075;53.988;27.678;2023-07-08T00:32:39;991;;;14.4;53.8
62980;BME280;49075;53.988;27.678;2023-07-08T00:37:08;991.1;;;14.2;54.2
62980;BME280;49075;53.988;27.678;2023-07-08T00:42:16;991;;;14.1;54.3
62980;BME280;49075;53.988;27.678;2023-07-08T00:47:09;990.9;;;14.1;54.9
62980;BME280;49075;53.988;27.678;2023-07-08T00:52:23;990.9;;;14.2;54.6
62980;BME280;49075;53.988;27.678;2023-07-08T00:57:07;990.9;;;14.1;55
62980;BME280;49075;53.988;27.678;2023-07-08T01:02:40;990.9;;;14.1;54.9
62980;BME280;49075;53.988;27.678;2023-07-08T01:07:22;990.9;;;14.1;55.3
62980;BME280;49075;53.988;27.678;2023-07-08T01:12:24;990.9;;;14;55.4
62980;BME280;49075;53.988;27.678;2023-07-08T01:17:13;990.9;;;13.9;55.9
62980;BME280;49075;53.988;27.678;2023-07-08T01:22:22;990.9;;;13.9;56.1
62980;BME280;49075;53.988;27.678;2023-07-08T01:27:08;990.9;;;13.9;56.1
62980;BME280;49075;53.988;27.678;2023-07-08T01:32:09;990.9;;;13.9;56
62980;BME280;49075;53.988;27.678;2023-07-08T01:37:47;990.9;;;13.9;56.3
62980;BME280;49075;53.988;27.678;2023-07-08T01:42:29;990.9;;;13.8;56.5
62980;BME280;49075;53.988;27.678;2023-07-08T01:47:48;991;;;13.6;57.1
62980;BME280;49075;53.988;27.678;2023-07-08T01:52:25;991;;;13.6;57
62980;BME280;49075;53.988;27.678;2023-07-08T01:57:25;991;;;13.5;57.6
62980;BME280;49075;53.988;27.678;2023-07-08T02:02:48;991;;;13.5;57.4
62980;BME280;49075;53.988;27.678;2023-07-08T02:07:07;991.1;;;13.6;57.8
62980;BME280;49075;53.988;27.678;2023-07-08T02:12:08;991;;;13.6;57.2
62980;BME280;49075;53.988;27.678;2023-07-08T02:17:21;991;;;13.5;57.6
62980;BME280;49075;53.988;27.678;2023-07-08T02:22:22;991.1;;;13.5;57.8
62980;BME280;49075;53.988;27.678;2023-07-08T02:27:31;991.1;;;13.5;57.9
62980;BME280;49075;53.988;27.678;2023-07-08T02:32:08;991.2;;;13.4;58.2
62980;BME280;49075;53.988;27.678;2023-07-08T02:37:25;991.2;;;13.4;58
62980;BME280;49075;53.988;27.678;2023-07-08T02:42:08;991.2;;;13.4;58.1
62980;BME280;49075;53.988;27.678;2023-07-08T02:47:07;991.2;;;13.4;58.2
62980;BME280;49075;53.988;27.678;2023-07-08T02:52:08;991.2;;;13.4;58.4
62980;BME280;49075;53.988;27.678;2023-07-08T02:57:13;991.3;;;13.4;58.3
62980;BME280;49075;53.988;27.678;2023-07-08T03:02:27;991.3;;;13.5;58.5
62980;BME280;49075;53.988;27.678;2023-07-08T03:07:21;991.2;;;13.6;58
62980;BME280;49075;53.988;27.678;2023-07-08T03:12:22;991.2;;;13.7;58.1
62980;BME280;49075;53.988;27.678;2023-07-08T03:17:07;991.3;;;13.8;57.8
62980;BME280;49075;53.988;27.678;2023-07-08T03:22:07;991.2;;;14;57.6
62980;BME280;49075;53.988;27.678;2023-07-08T03:27:08;991.3;;;14;57.4
62980;BME280;49075;53.988;27.678;2023-07-08T03:32:28;991.3;;;14.1;57.3
62980;BME280;49075;53.988;27.678;2023-07-08T03:37:22;991.3;;;14.4;56.9
62980;BME280;49075;53.988;27.678;2023-07-08T03:42:38;991.4;;;14.5;56.7
62980;BME280;49075;53.988;27.678;2023-07-08T03:48:04;991.4;;;14.7;56.4
62980;BME280;49075;53.988;27.678;2023-07-08T03:52:08;991.4;;;14.8;56.1
62980;BME280;49075;53.988;27.678;2023-07-08T03:57:08;991.4;;;15.1;55.8
62980;BME280;49075;53.988;27.678;2023-07-08T04:02:22;991.4;;;15.2;55.4
62980;BME280;49075;53.988;27.678;2023-07-08T04:07:08;991.4;;;15.5;54.8
62980;BME280;49075;53.988;27.678;2023-07-08T04:12:08;991.4;;;15.6;54.8
62980;BME280;49075;53.988;27.678;2023-07-08T04:17:32;991.5;;;15.9;54.4
62980;BME280;49075;53.988;27.678;2023-07-08T04:22:26;991.5;;;16.1;53.9
62980;BME280;49075;53.988;27.678;2023-07-08T04:27:08;991.5;;;16.4;53.2
62980;BME280;49075;53.988;27.678;2023-07-08T04:32:46;991.5;;;16.5;53
62980;BME280;49075;53.988;27.678;2023-07-08T04:37:08;991.5;;;16.6;52.8
62980;BME280;49075;53.988;27.678;2023-07-08T04:42:56;991.5;;;16.7;52.4
62980;BME280;49075;53.988;27.678;2023-07-08T04:47:28;991.5;;;17;51.8
62980;BME280;49075;53.988;27.678;2023-07-08T04:52:08;991.4;;;17.3;51.1
62980;BME280;49075;53.988;27.678;2023-07-08T04:57:30;991.4;;;17.7;50.4
62980;BME280;49075;53.988;27.678;2023-07-08T05:02:40;991.4;;;17.9;49.4
62980;BME280;49075;53.988;27.678;2023-07-08T05:07:08;991.4;;;18.2;48.8
62980;BME280;49075;53.988;27.678;2023-07-08T05:12:08;991.4;;;18.3;48.8
62980;BME280;49075;53.988;27.678;2023-07-08T05:17:36;991.3;;;18.6;48.3
62980;BME280;49075;53.988;27.678;2023-07-08T05:22:30;991.3;;;18.9;47.6
62980;BME280;49075;53.988;27.678;2023-07-08T05:27:08;991.3;;;19.3;46
62980;BME280;49075;53.988;27.678;2023-07-08T05:32:22;991.3;;;19.6;45.5
62980;BME280;49075;53.988;27.678;2023-07-08T05:37:22;991.4;;;19.7;45.5
62980;BME280;49075;53.988;27.678;2023-07-08T05:42:26;991.4;;;20;44.2
62980;BME280;49075;53.988;27.678;2023-07-08T05:47:08;991.3;;;20.3;43.1
62980;BME280;49075;53.988;27.678;2023-07-08T05:52:44;991.2;;;20.6;43.1
62980;BME280;49075;53.988;27.678;2023-07-08T05:57:09;991.2;;;20.8;42.3
62980;BME280;49075;53.988;27.678;2023-07-08T06:02:34;991.2;;;21;41.5
62980;BME280;49075;53.988;27.678;2023-07-08T06:07:36;991.1;;;21.2;40.5
62980;BME280;49075;53.988;27.678;2023-07-08T06:12:28;991.1;;;21.6;39.9
62980;BME280;49075;53.988;27.678;2023-07-08T06:17:26;991;;;21.6;39.1
62980;BME280;49075;53.988;27.678;2023-07-08T06:22:08;991;;;21.8;39.7
62980;BME280;49075;53.988;27.678;2023-07-08T06:27:22;990.9;;;22.2;38.5
62980;BME280;49075;53.988;27.678;2023-07-08T06:32:42;990.9;;;22.8;37.7
62980;BME280;49075;53.988;27.678;2023-07-08T06:37:08;990.9;;;23.1;36.6
62980;BME280;49075;53.988;27.678;2023-07-08T06:42:22;990.9;;;23.8;35.9
62980;BME280;49075;53.988;27.678;2023-07-08T06:47:28;990.8;;;24.6;34.8
62980;BME280;49075;53.988;27.678;2023-07-08T06:52:14;990.8;;;25.2;33.3
62980;BME280;49075;53.988;27.678;2023-07-08T06:57:40;990.7;;;25.8;32.7
62980;BME280;49075;53.988;27.678;2023-07-08T07:02:08;990.6;;;26.5;30.9
62980;BME280;49075;53.988;27.678;2023-07-08T07:07:08;990.7;;;27.5;30.4
62980;BME280;49075;53.988;27.678;2023-07-08T07:12:40;990.6;;;28.4;28.3
62980;BME280;49075;53.988;27.678;2023-07-08T07:17:08;990.5;;;29.1;27.8
62980;BME280;49075;53.988;27.678;2023-07-08T07:22:22;990.5;;;29.3;26.4
62980;BME280;49075;53.988;27.678;2023-07-08T07:27:08;990.5;;;29.6;26.5
62980;BME280;49075;53.988;27.678;2023-07-08T07:32:23;990.5;;;29.7;25.7
62980;BME280;49075;53.988;27.678;2023-07-08T07:37:40;990.5;;;30.7;25.3
62980;BME280;49075;53.988;27.678;2023-07-08T07:42:26;990.4;;;30.9;24.1
62980;BME280;49075;53.988;27.678;2023-07-08T07:47:20;990.4;;;31.1;23.8
62980;BME280;49075;53.988;27.678;2023-07-08T07:52:14;990.4;;;31.5;22.9
62980;BME280;49075;53.988;27.678;2023-07-08T07:57:14;990.4;;;31.7;23.1
62980;BME280;49075;53.988;27.678;2023-07-08T08:02:22;990.3;;;31.4;23
62980;BME280;49075;53.988;27.678;2023-07-08T08:07:28;990.3;;;31.6;23.5
62980;BME280;49075;53.988;27.678;2023-07-08T08:12:26;990.3;;;31.7;22.9
62980;BME280;49075;53.988;27.678;2023-07-08T08:17:08;990.3;;;32.3;22.2
62980;BME280;49075;53.988;27.678;2023-07-08T08:22:08;990.2;;;32.5;22
62980;BME280;49075;53.988;27.678;2023-07-08T08:27:14;990.1;;;31.3;22.6
62980;BME280;49075;53.988;27.678;2023-07-08T08:32:08;990.2;;;31.1;23.1
62980;BME280;49075;53.988;27.678;2023-07-08T08:37:22;990.2;;;31.8;21.9
62980;BME280;49075;53.988;27.678;2023-07-08T08:42:27;990.3;;;31.5;22.3
62980;BME280;49075;53.988;27.678;2023-07-08T08:47:40;990.2;;;31.8;21.7
62980;BME280;49075;53.988;27.678;2023-07-08T08:52:06;990.2;;;31.1;22.4
62980;BME280;49075;53.988;27.678;2023-07-08T08:57:32;990.3;;;31.7;21.6
62980;BME280;49075;53.988;27.678;2023-07-08T09:02:39;990.2;;;31.7;21.2
62980;BME280;49075;53.988;27.678;2023-07-08T09:07:37;990.2;;;32.2;20.3
62980;BME280;49075;53.988;27.678;2023-07-08T09:12:54;990.1;;;31.5;21.1
62980;BME280;49075;53.988;27.678;2023-07-08T09:17:13;990.2;;;31.6;20.4
62980;BME280;49075;53.988;27.678;2023-07-08T09:22:30;990.2;;;31.7;20.8
62980;BME280;49075;53.988;27.678;2023-07-08T09:27:56;990.2;;;32.2;20.3
62980;BME280;49075;53.988;27.678;2023-07-08T09:32:32;990.1;;;32.5;20
62980;BME280;49075;53.988;27.678;2023-07-08T09:37:20;990.1;;;32.4;19.8
62980;BME280;49075;53.988;27.678;2023-07-08T09:42:34;990.1;;;32.2;20
62980;BME280;49075;53.988;27.678;2023-07-08T09:47:46;990.1;;;32.5;19.9
62980;BME280;49075;53.988;27.678;2023-07-08T09:52:24;990;;;32.1;19.9
62980;BME280;49075;53.988;27.678;2023-07-08T09:57:25;990;;;31.7;20.5
62980;BME280;49075;53.988;27.678;2023-07-08T10:02:39;990;;;31.6;20.3
62980;BME280;49075;53.988;27.678;2023-07-08T10:07:24;989.9;;;31.7;19.6
62980;BME280;49075;53.988;27.678;2023-07-08T10:12:08;989.9;;;31.2;20.2
62980;BME280;49075;53.988;27.678;2023-07-08T10:17:22;989.9;;;31.2;20.2
62980;BME280;49075;53.988;27.678;2023-07-08T10:22:13;989.9;;;31.1;20.5
62980;BME280;49075;53.988;27.678;2023-07-08T10:27:12;989.9;;;31.3;20.1
62980;BME280;49075;53.988;27.678;2023-07-08T10:32:24;989.8;;;31.1;20.9
62980;BME280;49075;53.988;27.678;2023-07-08T10:37:17;989.8;;;30.7;21.1
62980;BME280;49075;53.988;27.678;2023-07-08T10:42:38;989.7;;;30.8;21.3
62980;BME280;49075;53.988;27.678;2023-07-08T10:47:10;989.8;;;31;21
62980;BME280;49075;53.988;27.678;2023-07-08T10:52:13;989.7;;;30.9;21.1
62980;BME280;49075;53.988;27.678;2023-07-08T10:57:11;989.8;;;30.6;21.3
62980;BME280;49075;53.988;27.678;2023-07-08T11:03:18;989.8;;;30;22
62980;BME280;49075;53.988;27.678;2023-07-08T11:07:27;989.7;;;29.8;22.3
62980;BME280;49075;53.988;27.678;2023-07-08T11:12:09;989.6;;;29.6;22.4
62980;BME280;49075;53.988;27.678;2023-07-08T11:17:25;989.6;;;29.3;22.4
62980;BME280;49075;53.988;27.678;2023-07-08T11:22:09;989.6;;;28.5;23
62980;BME280;49075;53.988;27.678;2023-07-08T11:27:08;989.4;;;28.2;23.2
62980;BME280;49075;53.988;27.678;2023-07-08T11:32:32;989.5;;;27.4;24.2
62980;BME280;49075;53.988;27.678;2023-07-08T11:37:26;989.6;;;26.6;25.1
62980;BME280;49075;53.988;27.678;2023-07-08T11:42:32;989.5;;;25.9;25.5
62980;BME280;49075;53.988;27.678;2023-07-08T11:47:25;989.6;;;25.3;26.5
62980;BME280;49075;53.988;27.678;2023-07-08T11:52:22;989.6;;;25.2;26.4
62980;BME280;49075;53.988;27.678;2023-07-08T11:57:14;989.5;;;24.9;26.9
62980;BME280;49075;53.988;27.678;2023-07-08T12:02:48;989.5;;;24.6;27.2
62980;BME280;49075;53.988;27.678;2023-07-08T12:07:11;989.5;;;24.5;27.6
62980;BME280;49075;53.988;27.678;2023-07-08T12:12:23;989.5;;;24.5;27.6
62980;BME280;49075;53.988;27.678;2023-07-08T12:17:10;989.5;;;24.3;28.3
62980;BME280;49075;53.988;27.678;2023-07-08T12:22:08;989.5;;;24.1;27.8
62980;BME280;49075;53.988;27.678;2023-07-08T12:27:22;989.4;;;23.8;28.8
62980;BME280;49075;53.988;27.678;2023-07-08T12:32:10;989.4;;;23.8;29
62980;BME280;49075;53.988;27.678;2023-07-08T12:37:10;989.4;;;23.9;29
62980;BME280;49075;53.988;27.678;2023-07-08T12:42:22;989.3;;;24;28.7
62980;BME280;49075;53.988;27.678;2023-07-08T12:47:22;989.3;;;24;28.9
62980;BME280;49075;53.988;27.678;2023-07-08T12:52:18;989.3;;;23.9;29.1
62980;BME280;49075;53.988;27.678;2023-07-08T12:57:22;989.3;;;24;29
62980;BME280;49075;53.988;27.678;2023-07-08T13:02:22;989.2;;;24.2;29.1
62980;BME280;49075;53.988;27.678;2023-07-08T13:07:08;989.2;;;24.2;28.8
62980;BME280;49075;53.988;27.678;2023-07-08T13:12:22;989.3;;;24.1;28.8
62980;BME280;49075;53.988;27.678;2023-07-08T13:17:22;989.3;;;24.2;28.9
62980;BME280;49075;53.988;27.678;2023-07-08T13:22:09;989.3;;;24.2;28.9
62980;BME280;49075;53.988;27.678;2023-07-08T13:27:12;989.2;;;24.2;28.8
62980;BME280;49075;53.988;27.678;2023-07-08T13:32:38;989.2;;;23.9;29.1
62980;BME280;49075;53.988;27.678;2023-07-08T13:37:22;989.3;;;23.9;29
62980;BME280;49075;53.988;27.678;2023-07-08T13:42:08;989.3;;;24.1;28.9
62980;BME280;49075;53.988;27.678;2023-07-08T13:47:28;989.2;;;24.3;28.7
62980;BME280;49075;53.988;27.678;2023-07-08T13:52:13;989.2;;;24.6;28.4
62980;BME280;49075;53.988;27.678;2023-07-08T13:57:33;989.2;;;24.5;28.7
62980;BME280;49075;53.988;27.678;2023-07-08T14:02:30;989.1;;;24.7;28.6
62980;BME280;49075;53.988;27.678;2023-07-08T14:07:36;989.1;;;24.6;28.8
62980;BME280;49075;53.988;27.678;2023-07-08T14:12:08;989.1;;;24.4;28.8
62980;BME280;49075;53.988;27.678;2023-07-08T14:17:08;989.1;;;24.2;29.1
62980;BME280;49075;53.988;27.678;2023-07-08T14:22:29;989.1;;;24.3;29.2
62980;BME280;49075;53.988;27.678;2023-07-08T14:27:22;989.1;;;24.2;29.3
62980;BME280;49075;53.988;27.678;2023-07-08T14:32:32;989;;;24.1;29.4
62980;BME280;49075;53.988;27.678;2023-07-08T14:37:11;989;;;24;29.4
62980;BME280;49075;53.988;27.678;2023-07-08T14:42:08;989;;;23.9;29.1
62980;BME280;49075;53.988;27.678;2023-07-08T14:47:40;989;;;23.8;29.2
62980;BME280;49075;53.988;27.678;2023-07-08T14:52:08;989;;;23.8;29.3
62980;BME280;49075;53.988;27.678;2023-07-08T14:57:09;988.9;;;23.8;29.2
62980;BME280;49075;53.988;27.678;2023-07-08T15:02:14;988.9;;;24.1;29.3
62980;BME280;49075;53.988;27.678;2023-07-08T15:07:08;988.9;;;24.2;29
62980;BME280;49075;53.988;27.678;2023-07-08T15:12:40;988.8;;;24.3;28.8
62980;BME280;49075;53.988;27.678;2023-07-08T15:17:09;988.8;;;24.4;28.6
62980;BME280;49075;53.988;27.678;2023-07-08T15:22:41;988.8;;;24.4;28.6
62980;BME280;49075;53.988;27.678;2023-07-08T15:27:08;988.7;;;24.4;28.6
62980;BME280;49075;53.988;27.678;2023-07-08T15:32:09;988.7;;;24.2;29.1
62980;BME280;49075;53.988;27.678;2023-07-08T15:37:48;988.7;;;24.2;29
62980;BME280;49075;53.988;27.678;2023-07-08T15:42:09;988.7;;;24.2;29
62980;BME280;49075;53.988;27.678;2023-07-08T15:47:40;988.6;;;24.3;29
62980;BME280;49075;53.988;27.678;2023-07-08T15:52:08;988.6;;;24.4;28.9
62980;BME280;49075;53.988;27.678;2023-07-08T15:57:08;988.6;;;24.6;28.8
62980;BME280;49075;53.988;27.678;2023-07-08T16:02:38;988.6;;;24.6;28.8
62980;BME280;49075;53.988;27.678;2023-07-08T16:07:56;988.6;;;24.6;28.9
62980;BME280;49075;53.988;27.678;2023-07-08T16:12:08;988.6;;;24.5;29.2
62980;BME280;49075;53.988;27.678;2023-07-08T16:17:14;988.5;;;24.2;29.6
62980;BME280;49075;53.988;27.678;2023-07-08T16:22:40;988.6;;;24.1;30
62980;BME280;49075;53.988;27.678;2023-07-08T16:27:08;988.6;;;24.1;29.9
62980;BME280;49075;53.988;27.678;2023-07-08T16:32:14;988.6;;;24.1;30.2
62980;BME280;49075;53.988;27.678;2023-07-08T16:37:14;988.6;;;24;30.6
62980;BME280;49075;53.988;27.678;2023-07-08T16:42:09;988.6;;;23.9;30.4
62980;BME280;49075;53.988;27.678;2023-07-08T16:47:08;988.5;;;23.7;30.8
62980;BME280;49075;53.988;27.678;2023-07-08T16:52:28;988.5;;;23.5;31.1
62980;BME280;49075;53.988;27.678;2023-07-08T16:57:36;988.5;;;23.3;31.4
62980;BME280;49075;53.988;27.678;2023-07-08T17:02:48;988.5;;;23.3;31.6
62980;BME280;49075;53.988;27.678;2023-07-08T17:07:08;988.6;;;23.2;31.9
62980;BME280;49075;53.988;27.678;2023-07-08T17:12:08;988.6;;;23.1;32.2
62980;BME280;49075;53.988;27.678;2023-07-08T17:17:24;988.6;;;23;32.1
62980;BME280;49075;53.988;27.678;2023-07-08T17:22:22;988.6;;;23.1;32.1
62980;BME280;49075;53.988;27.678;2023-07-08T17:27:22;988.6;;;23.2;32.2
62980;BME280;49075;53.988;27.678;2023-07-08T17:32:32;988.6;;;23.1;32.5
62980;BME280;49075;53.988;27.678;2023-07-08T17:37:08;988.6;;;23.1;32.3
62980;BME280;49075;53.988;27.678;2023-07-08T17:42:08;988.6;;;23.1;32.5
62980;BME280;49075;53.988;27.678;2023-07-08T17:47:08;988.6;;;22.9;32.9
62980;BME280;49075;53.988;27.678;2023-07-08T17:52:28;988.6;;;22.7;33.4
62980;BME280;49075;53.988;27.678;2023-07-08T17:57:56;988.7;;;22.6;33.6
62980;BME280;49075;53.988;27.678;2023-07-08T18:02:12;988.7;;;22.4;34.2
62980;BME280;49075;53.988;27.678;2023-07-08T18:07:26;988.7;;;22.3;34.4
62980;BME280;49075;53.988;27.678;2023-07-08T18:12:22;988.7;;;22.1;34.9
62980;BME280;49075;53.988;27.678;2023-07-08T18:17:08;988.7;;;21.9;35.2
62980;BME280;49075;53.988;27.678;2023-07-08T18:22:24;988.8;;;21.7;35.6
62980;BME280;49075;53.988;27.678;2023-07-08T18:27:08;988.8;;;21.6;35.8
62980;BME280;49075;53.988;27.678;2023-07-08T18:32:20;988.8;;;21.5;36.4
62980;BME280;49075;53.988;27.678;2023-07-08T18:37:08;988.8;;;21.4;36.6
62980;BME280;49075;53.988;27.678;2023-07-08T18:42:08;988.8;;;21.1;37.3
62980;BME280;49075;53.988;27.678;2023-07-08T18:47:09;988.9;;;21.1;37.2
62980;BME280;49075;53.988;27.678;2023-07-08T18:52:22;988.9;;;20.9;37.7
62980;BME280;49075;53.988;27.678;2023-07-08T18:57:08;988.9;;;20.8;37.9
62980;BME280;49075;53.988;27.678;2023-07-08T19:02:10;988.9;;;20.6;38.5
62980;BME280;49075;53.988;27.678;2023-07-08T19:07:09;988.9;;;20.5;38.8
62980;BME280;49075;53.988;27.678;2023-07-08T19:12:40;988.9;;;20.4;39.2
62980;BME280;49075;53.988;27.678;2023-07-08T19:17:08;988.9;;;20.3;39.8
62980;BME280;49075;53.988;27.678;2023-07-08T19:22:08;988.9;;;20.2;39.7
62980;BME280;49075;53.988;27.678;2023-07-08T19:27:11;988.8;;;20.1;40.2
62980;BME280;49075;53.988;27.678;2023-07-08T19:32:15;988.8;;;20;40.4
62980;BME280;49075;53.988;27.678;2023-07-08T19:37:10;988.8;;;19.9;40.9
62980;BME280;49075;53.988;27.678;2023-07-08T19:42:21;988.8;;;19.8;41.2
62980;BME280;49075;53.988;27.678;2023-07-08T19:47:55;988.8;;;19.8;41.7
62980;BME280;49075;53.988;27.678;2023-07-08T19:52:40;988.8;;;19.7;41.4
62980;BME280;49075;53.988;27.678;2023-07-08T19:57:22;988.8;;;19.6;41.9
62980;BME280;49075;53.988;27.678;2023-07-08T20:02:10;988.7;;;19.6;41.8
62980;BME280;49075;53.988;27.678;2023-07-08T20:07:14;988.7;;;19.4;42.3
62980;BME280;49075;53.988;27.678;2023-07-08T20:12:09;988.7;;;19.3;42.4
62980;BME280;49075;53.988;27.678;2023-07-08T20:17:09;988.7;;;19.2;42.9
62980;BME280;49075;53.988;27.678;2023-07-08T20:22:42;988.8;;;19.1;42.9
62980;BME280;49075;53.988;27.678;2023-07-08T20:27:08;988.8;;;19;43.3
62980;BME280;49075;53.988;27.678;2023-07-08T20:32:56;988.7;;;18.9;43.4
62980;BME280;49075;53.988;27.678;2023-07-08T20:37:10;988.7;;;18.9;43.7
62980;BME280;49075;53.988;27.678;2023-07-08T20:42:10;988.7;;;18.8;43.9
62980;BME280;49075;53.988;27.678;2023-07-08T20:47:11;988.7;;;18.7;44.3
62980;BME280;49075;53.988;27.678;2023-07-08T20:52:09;988.7;;;18.6;44.3
62980;BME280;49075;53.988;27.678;2023-07-08T20:58:07;988.6;;;18.6;44.7
62980;BME280;49075;53.988;27.678;2023-07-08T21:02:30;988.7;;;18.4;45
62980;BME280;49075;53.988;27.678;2023-07-08T21:07:32;988.6;;;18.3;45.3
62980;BME280;49075;53.988;27.678;2023-07-08T21:12:14;988.7;;;18.1;45.6
62980;BME280;49075;53.988;27.678;2023-07-08T21:17:28;988.6;;;17.9;46
62980;BME280;49075;53.988;27.678;2023-07-08T21:22:22;988.6;;;17.7;46.4
62980;BME280;49075;53.988;27.678;2023-07-08T21:27:40;988.6;;;17.5;47.2
62980;BME280;49075;53.988;27.678;2023-07-08T21:32:08;988.7;;;17.4;47.3
62980;BME280;49075;53.988;27.678;2023-07-08T21:37:09;988.7;;;17.3;47.9
62980;BME280;49075;53.988;27.678;2023-07-08T21:42:28;988.6;;;17.2;48
62980;BME280;49075;53.988;27.678;2023-07-08T21:47:22;988.6;;;17.1;48.8
62980;BME280;49075;53.988;27.678;2023-07-08T21:52:26;988.7;;;17.1;48.5
62980;BME280;49075;53.988;27.678;2023-07-08T21:57:26;988.7;;;17;49.1
62980;BME280;49075;53.988;27.678;2023-07-08T22:02:45;988.8;;;16.9;49.4
62980;BME280;49075;53.988;27.678;2023-07-08T22:07:40;988.8;;;16.8;49.5
62980;BME280;49075;53.988;27.678;2023-07-08T22:12:09;988.8;;;16.7;50.1
62980;BME280;49075;53.988;27.678;2023-07-08T22:17:51;988.8;;;16.6;50.2
62980;BME280;49075;53.988;27.678;2023-07-08T22:22:09;988.8;;;16.4;50.7
62980;BME280;49075;53.988;27.678;2023-07-08T22:27:20;988.9;;;16.3;50.8
62980;BME280;49075;53.988;27.678;2023-07-08T22:32:08;988.9;;;16.2;51.1
62980;BME280;49075;53.988;27.678;2023-07-08T22:37:30;989;;;16.1;51.7
62980;BME280;49075;53.988;27.678;2023-07-08T22:42:08;988.9;;;16.1;51.9
62980;BME280;49075;53.988;27.678;2023-07-08T22:47:08;988.9;;;16.1;51.8
62980;BME280;49075;53.988;27.678;2023-07-08T22:52:25;989;;;16.1;52.2
62980;BME280;49075;53.988;27.678;2023-07-08T22:57:22;989;;;16;52.1
62980;BME280;49075;53.988;27.678;2023-07-08T23:02:08;989;;;15.9;52.7
62980;BME280;49075;53.988;27.678;2023-07-08T23:07:20;988.9;;;15.7;52.8
62980;BME280;49075;53.988;27.678;2023-07-08T23:12:08;989;;;15.5;53.7
62980;BME280;49075;53.988;27.678;2023-07-08T23:17:41;988.9;;;15.5;53.5
62980;BME280;49075;53.988;27.678;2023-07-08T23:22:16;988.9;;;15.4;54.3
62980;BME280;49075;53.988;27.678;2023-07-08T23:27:22;988.9;;;15.4;53.9
62980;BME280;49075;53.988;27.678;2023-07-08T23:32:22;988.9;;;15.3;54.4
62980;BME280;49075;53.988;27.678;2023-07-08T23:37:42;988.9;;;15.3;54.2
62980;BME280;49075;53.988;27.678;2023-07-08T23:42:41;988.9;;;15.2;54.8
62980;BME280;49075;53.988;27.678;2023-07-08T23:47:23;988.8;;;15.2;54.7
62980;BME280;49075;53.988;27.678;2023-07-08T23:52:42;988.9;;;15;55.5
62980;BME280;49075;53.988;27.678;2023-07-08T23:57:10;988.9;;;15;55.3
